FKKD

Douala International Airport

Douala, Cameroon
METAR FKKD 231600Z VRB03KT 9999 BKN016 FEW020CB 30/26 Q1008 TEMPO TS
Observed Flight Rules
Oct-23 @ 16:00 UTC (27 minutes ago) Marginal Visual Flight Rules
Wind Visibility Clouds
Variable at 3 knots 10,000+ meters
  • Broken at 1,600' AGL
  • Few at 2,000' AGL
Temperatures Readings
Current 30°C / 86°F
Dewpoint 26°C / 79°F
Humidity 79%
Altimeter 29.76" Hg
Pressure 1008 hPa
Elevation 9
METAR FKKD 231600Z VRB03KT 9999 BKN016 FEW020CB 30/26 Q1008 TEMPO TS
Observed Flight Rules
Oct-23 @ 16:00 UTC
(27 minutes ago)
MVFR
Wind Visibility
Variable at 3 knots 10,000+ meters
Clouds
  • Broken at 1,600' AGL
  • Few at 2,000' AGL
Temperature Dewpoint
30°C / 86°F 26°C / 79°F
Humidity Altimeter Pressure
79% 29.76" Hg 1008 hPa